Logrono/Agoncillo, Spain
Current Conditions -  °F | °C
As of 7:00 PM on Sunday 23 Nov 2014 (Local Time) from LELO Reporting Station
Few Clouds Few Clouds  
Wind Chill: 63°   Ceiling: Unl
Heat Index: 63°   Visibility: 6mi
Dew Point: 55°   Wind: 14mph
Humidity: 77%   Direction: 80°E
Pressure: 29.97"   Gusts: NA
Location:  42.46°N, 2.31°W
Report Text: LELO 231800Z 08012KT 050V110 9999 FEW065 17/13 Q1015
Loading
Personal Weather Stations






























Interactive Weather Map New forecast layout! Learn more

10-Day Weather Forecast

Advertisements
Track Severe Weather on mobile